Yahata Maru — JL6477 — position and weather

sailwx.info

Track history (hours):
 
Tides and Currents Weather Stations Pressure Air Temp Water Temp Dewpoint Dewpoint Depression Visibility Wind Speed Wind Dir Waves Ship Positions

Yahata Maru

Last reported at 2018-Feb-06 04:24 UTC. Time now 2018-Feb-22 03:33 UTC.
Position N 34°27' E 134°03'.
Warning: this ship's position is 15 days out of date.

Length 149 m; draft 4.7 m.

Type: Other ship. MMSI: 431400594.

Date/timePositionNaut miles runAvg speedWind from/ knotsBaromVisibWave heightAir tempDewpointWater temp
2018-Feb-06 04:24N 34°27' E 134°03'5 9.9
2018-Feb-06 03:56N 34°26' E 134°08'410.3
2018-Feb-06 03:30N 34°24' E 134°13'5 9.9
2018-Feb-06 03:00N 34°24' E 134°19'5 9.6
2018-Feb-06 02:30N 34°26' E 134°25'5 9.8
2018-Feb-06 02:00N 34°28' E 134°30'5 9.8
2018-Feb-06 01:30N 34°30' E 134°36'10 9.6
2018-Feb-06 00:30N 34°34' E 134°47'5 9.4
2018-Feb-06 00:00N 34°35' E 134°52'5 9.5
2018-Feb-05 23:30N 34°37' E 134°57'4 8.0
2018-Feb-05 23:00N 34°37' E 135°02'9 8.6
2018-Feb-05 22:00N 34°36' E 135°13'4 9.0
2018-Feb-05 21:30N 34°36' E 135°18'6 6.3
2018-Feb-05 20:30N 34°35' E 135°26'0 0.0
2018-Feb-05 19:59N 34°35' E 135°26'0 0.0
2018-Feb-05 19:29N 34°35' E 135°26'0 0.0
2018-Feb-05 18:59N 34°35' E 135°26'0 0.0
2018-Feb-05 18:29N 34°35' E 135°26'0 0.0
2018-Feb-05 17:59N 34°35' E 135°26'0 0.0
2018-Feb-05 17:26N 34°35' E 135°26'0 0.0
2018-Feb-05 16:59N 34°35' E 135°26'0 0.0
2018-Feb-05 16:29N 34°35' E 135°26'0 0.0
2018-Feb-05 15:59N 34°35' E 135°26'0 0.0
2018-Feb-05 15:26N 34°35' E 135°26'0 0.0
2018-Feb-05 14:59N 34°35' E 135°26'0 0.0
2018-Feb-05 14:29N 34°35' E 135°26'0 0.0
2018-Feb-05 13:59N 34°35' E 135°26'0 0.0
2018-Feb-05 13:26N 34°35' E 135°26'0 0.0
2018-Feb-05 12:47N 34°35' E 135°26'0 0.0
2018-Feb-05 12:29N 34°35' E 135°26'0 0.0
2018-Feb-05 11:59N 34°35' E 135°26'0 0.0
2018-Feb-05 11:29N 34°35' E 135°26'0 0.0
2018-Feb-05 10:59N 34°35' E 135°26'0 0.0
2018-Feb-05 10:29N 34°35' E 135°26'0 0.0
2018-Feb-05 09:59N 34°35' E 135°26'0 0.0
2018-Feb-05 09:29N 34°35' E 135°26'0 0.0
2018-Feb-05 08:59N 34°35' E 135°26'0 0.1
2018-Feb-05 08:30N 34°35' E 135°26'2 3.2
2018-Feb-05 08:00N 34°36' E 135°24'3 6.5
2018-Feb-05 07:30N 34°38' E 135°20'4 7.7
2018-Feb-05 07:01N 34°41' E 135°21'2 4.0
2018-Feb-05 06:30N 34°43' E 135°21'0 0.0
2018-Feb-05 05:29N 34°43' E 135°21'0 0.0
2018-Feb-05 04:59N 34°43' E 135°21'0 0.0
2018-Feb-05 04:30N 34°43' E 135°21'0 0.0
2018-Feb-05 04:00N 34°43' E 135°21'1 2.0
2018-Feb-05 03:30N 34°42' E 135°21'1 1.5
2018-Feb-05 02:58N 34°42' E 135°20'0 0.1
2018-Feb-05 02:26N 34°42' E 135°20'0 0.1
2018-Feb-05 01:59N 34°42' E 135°20'0 0.1
2018-Feb-05 01:29N 34°42' E 135°20'0 0.0
2018-Feb-05 00:59N 34°42' E 135°20'0 0.0
2018-Feb-05 00:28N 34°42' E 135°20'0 0.0
2018-Feb-04 23:58N 34°42' E 135°20'0 0.1
2018-Feb-04 23:29N 34°42' E 135°20'0 0.1
2018-Feb-04 22:58N 34°42' E 135°20'1 2.4
2018-Feb-04 22:30N 34°41' E 135°19'4 8.6
2018-Feb-04 22:00N 34°37' E 135°17'5 9.9
2018-Feb-04 21:30N 34°34' E 135°12'510.2
2018-Feb-04 21:00N 34°33' E 135°06'1111.1
2018-Feb-04 20:00N 34°35' E 134°53'611.5
2018-Feb-04 19:30N 34°32' E 134°47'510.5
2018-Feb-04 19:00N 34°30' E 134°41'510.2
2018-Feb-04 18:31N 34°28' E 134°35'510.2
2018-Feb-04 18:00N 34°26' E 134°29'510.2
2018-Feb-04 17:30N 34°24' E 134°24'16 0.5
2018-Feb-03 11:56N 34°27' E 134°04'510.9
2018-Feb-03 11:26N 34°25' E 134°11'410.0
2018-Feb-03 11:00N 34°24' E 134°16'5 9.7
2018-Feb-03 10:30N 34°25' E 134°21'5 9.6
2018-Feb-03 10:00N 34°27' E 134°27'5 9.7
2018-Feb-03 09:30N 34°29' E 134°32'5 9.5
2018-Feb-03 09:00N 34°30' E 134°37'5 9.3
2018-Feb-03 08:31N 34°32' E 134°43'5 9.0
2018-Feb-03 08:00N 34°34' E 134°48'11 7.5
2018-Feb-03 06:30N 34°38' E 135°01'3 6.2
2018-Feb-03 06:01N 34°36' E 135°04'5 9.1
2018-Feb-03 05:30N 34°36' E 135°09'510.3
2018-Feb-03 05:00N 34°36' E 135°16'8 8.1
2018-Feb-03 04:00N 34°35' E 135°26'0 0.1
2018-Feb-03 03:28N 34°35' E 135°26'0 0.0
2018-Feb-03 01:58N 34°35' E 135°26'0 0.0
2018-Feb-03 01:28N 34°35' E 135°26'0 0.1
2018-Feb-03 01:00N 34°35' E 135°26'2 4.5
2018-Feb-03 00:30N 34°36' E 135°23'2 4.2
2018-Feb-03 00:01N 34°36' E 135°21'3 6.5
2018-Feb-02 23:30N 34°39' E 135°21'4 7.7
2018-Feb-02 23:01N 34°43' E 135°21'0 0.4
2018-Feb-02 22:31N 34°43' E 135°21'0 0.0
2018-Feb-02 22:00N 34°43' E 135°21'0 0.0
2018-Feb-02 21:30N 34°43' E 135°21'0 0.0
2018-Feb-02 21:00N 34°43' E 135°21'0 0.0
2018-Feb-02 20:30N 34°43' E 135°21'0 0.0
2018-Feb-02 19:57N 34°43' E 135°21'0 0.0
2018-Feb-02 18:57N 34°43' E 135°21'0 0.0
2018-Feb-02 18:30N 34°43' E 135°21'0 0.0
2018-Feb-02 18:00N 34°43' E 135°21'0 0.0
2018-Feb-02 17:27N 34°43' E 135°21'0 0.1
2018-Feb-02 17:00N 34°43' E 135°21'0 0.1
2018-Feb-02 16:30N 34°43' E 135°21'0 0.0
2018-Feb-02 15:30N 34°43' E 135°21'0 0.0
2018-Feb-02 14:30N 34°43' E 135°21'0 0.0
2018-Feb-02 13:57N 34°43' E 135°21'0 0.0
2018-Feb-02 13:30N 34°43' E 135°21'0 0.4
2018-Feb-02 13:00N 34°43' E 135°21'1 2.9
2018-Feb-02 12:31N 34°42' E 135°20'4 7.3
2018-Feb-02 12:01N 34°38' E 135°19'4 8.8
2018-Feb-02 11:31N 34°36' E 135°15'5 9.2
2018-Feb-02 11:00N 34°35' E 135°09'5 9.9
2018-Feb-02 10:30N 34°36' E 135°03'4 8.7
2018-Feb-02 10:01N 34°37' E 134°58'510.7
2018-Feb-02 09:31N 34°34' E 134°52'510.0
2018-Feb-02 09:00N 34°32' E 134°47'510.2
2018-Feb-02 08:30N 34°30' E 134°41'510.3
2018-Feb-02 08:01N 34°28' E 134°35'510.2
2018-Feb-02 07:30N 34°26' E 134°29'510.3
2018-Feb-02 07:00N 34°25' E 134°24'  
2018-Jan-30 12:41N 34°24' E 133°48'13 9.1
2018-Jan-30 11:13N 34°27' E 134°03'710.2
2018-Jan-30 10:30N 34°25' E 134°12'10 9.8
2018-Jan-30 09:30N 34°26' E 134°24'5 9.8
2018-Jan-30 09:00N 34°28' E 134°29'5 9.4
2018-Jan-30 08:30N 34°29' E 134°35'5 9.2
2018-Jan-30 08:00N 34°31' E 134°40'5 9.0
2018-Jan-30 07:30N 34°33' E 134°45'4 8.7
2018-Jan-30 07:00N 34°34' E 134°50'4 7.8
2018-Jan-30 06:30N 34°36' E 134°54'4 7.4
2018-Jan-30 06:00N 34°37' E 134°58'3 6.2
2018-Jan-30 05:30N 34°37' E 135°02'3 6.7
2018-Jan-30 05:00N 34°36' E 135°06'4 8.7
2018-Jan-30 04:30N 34°37' E 135°11'4 8.8
2018-Jan-30 04:00N 34°38' E 135°16'5 9.0
2018-Jan-30 03:30N 34°40' E 135°21'3 6.4
2018-Jan-30 03:01N 34°43' E 135°21'0 0.2
2018-Jan-30 02:30N 34°43' E 135°21'0 0.0
2018-Jan-30 02:00N 34°43' E 135°21'0 0.0
2018-Jan-30 01:30N 34°43' E 135°21'0 0.0
2018-Jan-30 01:00N 34°43' E 135°21'0 0.0
2018-Jan-30 00:30N 34°43' E 135°21'1 1.9
2018-Jan-30 00:00N 34°42' E 135°21'4 7.4
2018-Jan-29 23:30N 34°38' E 135°21'3 5.9
2018-Jan-29 23:00N 34°36' E 135°23'2 4.3
2018-Jan-29 22:30N 34°35' E 135°26'0 0.0
2018-Jan-29 21:59N 34°35' E 135°26'0 0.0
2018-Jan-29 21:29N 34°35' E 135°26'0 0.0
2018-Jan-29 20:59N 34°35' E 135°26'0 0.0
2018-Jan-29 20:25N 34°35' E 135°26'0 0.0
2018-Jan-29 19:58N 34°35' E 135°26'0 0.0
2018-Jan-29 19:29N 34°35' E 135°26'0 0.0
2018-Jan-29 18:58N 34°35' E 135°26'0 0.0
2018-Jan-29 18:29N 34°35' E 135°26'0 0.0
2018-Jan-29 17:56N 34°35' E 135°26'0 0.0
2018-Jan-29 17:29N 34°35' E 135°26'0 0.0
2018-Jan-29 16:58N 34°35' E 135°26'0 0.0
2018-Jan-29 16:28N 34°35' E 135°26'0 0.0
2018-Jan-29 15:59N 34°35' E 135°26'0 0.0
2018-Jan-29 15:28N 34°35' E 135°26'0 0.0
2018-Jan-29 14:58N 34°35' E 135°26'0 0.0
2018-Jan-29 14:28N 34°35' E 135°26'0 0.0
2018-Jan-29 13:58N 34°35' E 135°26'0 0.0
2018-Jan-29 13:29N 34°35' E 135°26'0 0.0
2018-Jan-29 12:58N 34°35' E 135°26'0 0.0
2018-Jan-29 12:28N 34°35' E 135°26'0 0.0
2018-Jan-29 11:58N 34°35' E 135°26'0 0.0
2018-Jan-29 11:25N 34°35' E 135°26'0 0.5
2018-Jan-29 11:00N 34°35' E 135°25'3 6.2
2018-Jan-29 10:30N 34°36' E 135°22'5 9.6
2018-Jan-29 10:00N 34°36' E 135°16'5 9.6
2018-Jan-29 09:30N 34°35' E 135°10'5 9.8
2018-Jan-29 09:00N 34°35' E 135°04'4 8.2
2018-Jan-29 08:30N 34°37' E 135°00'5 9.3
2018-Jan-29 08:00N 34°35' E 134°55'5 9.5
2018-Jan-29 07:30N 34°33' E 134°50'5 9.4
2018-Jan-29 07:00N 34°31' E 134°44'5 9.7
2018-Jan-29 06:30N 34°29' E 134°39'5 9.7
2018-Jan-29 06:00N 34°28' E 134°34'5 9.7
2018-Jan-29 05:30N 34°26' E 134°28'5 9.9
2018-Jan-29 05:00N 34°24' E 134°22'15 0.4
2018-Jan-27 18:36N 34°27' E 134°04'311.1
2018-Jan-27 18:19N 34°26' E 134°08'410.9
2018-Jan-27 17:59N 34°25' E 134°12'510.1
2018-Jan-27 17:30N 34°25' E 134°18'5 9.9
2018-Jan-27 17:00N 34°26' E 134°24'5 9.8
2018-Jan-27 16:30N 34°28' E 134°29'5 9.7
2018-Jan-27 16:00N 34°30' E 134°35'5 9.5
2018-Jan-27 15:30N 34°32' E 134°40'5 9.3
2018-Jan-27 15:00N 34°33' E 134°46'4 8.4
2018-Jan-27 14:30N 34°35' E 134°50'4 7.6
2018-Jan-27 14:01N 34°36' E 134°55'4 7.2
2018-Jan-27 13:30N 34°37' E 134°59'3 5.8
2018-Jan-27 13:00N 34°37' E 135°02'4 7.0
2018-Jan-27 12:30N 34°36' E 135°06'5 9.6
2018-Jan-27 12:00N 34°36' E 135°12'5 9.5
2018-Jan-27 11:30N 34°39' E 135°17'5 9.1
2018-Jan-27 11:00N 34°42' E 135°21'1 1.8
2018-Jan-27 10:30N 34°43' E 135°21'0 0.0
2018-Jan-27 09:59N 34°43' E 135°21'0 0.0
2018-Jan-27 09:29N 34°43' E 135°21'0 0.0
2018-Jan-27 08:59N 34°43' E 135°21'0 0.0
2018-Jan-27 08:29N 34°43' E 135°21'0 0.0
2018-Jan-27 07:58N 34°43' E 135°21'0 0.1
2018-Jan-27 07:30N 34°43' E 135°21'1 2.0
2018-Jan-27 07:00N 34°42' E 135°21'3 6.9
2018-Jan-27 06:30N 34°39' E 135°18'5 9.4
2018-Jan-27 06:00N 34°35' E 135°16'5 9.6
2018-Jan-27 05:30N 34°31' E 135°13'5 9.6
2018-Jan-27 05:00N 34°27' E 135°09'5 9.3
2018-Jan-27 04:30N 34°24' E 135°05'  
Track history (hours):
 
Tides and Currents Weather Stations Pressure Air Temp Water Temp Dewpoint Dewpoint Depression Visibility Wind Speed Wind Dir Waves Ship Positions

Yahata Maru

Last reported at 2018-Feb-06 04:24 UTC. Time now 2018-Feb-22 03:33 UTC.
Position N 34°27' E 134°03'.
Warning: this ship's position is 15 days out of date.

Length 149 m; draft 4.7 m.

Type: Other ship. MMSI: 431400594.

Date/timePositionNaut miles runAvg speedWind from/ knotsBaromVisibWave heightAir tempDewpointWater temp
2018-Feb-06 04:24N 34°27' E 134°03'5 9.9
2018-Feb-06 03:56N 34°26' E 134°08'410.3
2018-Feb-06 03:30N 34°24' E 134°13'5 9.9
2018-Feb-06 03:00N 34°24' E 134°19'5 9.6
2018-Feb-06 02:30N 34°26' E 134°25'5 9.8
2018-Feb-06 02:00N 34°28' E 134°30'5 9.8
2018-Feb-06 01:30N 34°30' E 134°36'10 9.6
2018-Feb-06 00:30N 34°34' E 134°47'5 9.4
2018-Feb-06 00:00N 34°35' E 134°52'5 9.5
2018-Feb-05 23:30N 34°37' E 134°57'4 8.0
2018-Feb-05 23:00N 34°37' E 135°02'9 8.6
2018-Feb-05 22:00N 34°36' E 135°13'4 9.0
2018-Feb-05 21:30N 34°36' E 135°18'6 6.3
2018-Feb-05 20:30N 34°35' E 135°26'0 0.0
2018-Feb-05 19:59N 34°35' E 135°26'0 0.0
2018-Feb-05 19:29N 34°35' E 135°26'0 0.0
2018-Feb-05 18:59N 34°35' E 135°26'0 0.0
2018-Feb-05 18:29N 34°35' E 135°26'0 0.0
2018-Feb-05 17:59N 34°35' E 135°26'0 0.0
2018-Feb-05 17:26N 34°35' E 135°26'0 0.0
2018-Feb-05 16:59N 34°35' E 135°26'0 0.0
2018-Feb-05 16:29N 34°35' E 135°26'0 0.0
2018-Feb-05 15:59N 34°35' E 135°26'0 0.0
2018-Feb-05 15:26N 34°35' E 135°26'0 0.0
2018-Feb-05 14:59N 34°35' E 135°26'0 0.0
2018-Feb-05 14:29N 34°35' E 135°26'0 0.0
2018-Feb-05 13:59N 34°35' E 135°26'0 0.0
2018-Feb-05 13:26N 34°35' E 135°26'0 0.0
2018-Feb-05 12:47N 34°35' E 135°26'0 0.0
2018-Feb-05 12:29N 34°35' E 135°26'0 0.0
2018-Feb-05 11:59N 34°35' E 135°26'0 0.0
2018-Feb-05 11:29N 34°35' E 135°26'0 0.0
2018-Feb-05 10:59N 34°35' E 135°26'0 0.0
2018-Feb-05 10:29N 34°35' E 135°26'0 0.0
2018-Feb-05 09:59N 34°35' E 135°26'0 0.0
2018-Feb-05 09:29N 34°35' E 135°26'0 0.0
2018-Feb-05 08:59N 34°35' E 135°26'0 0.1
2018-Feb-05 08:30N 34°35' E 135°26'2 3.2
2018-Feb-05 08:00N 34°36' E 135°24'3 6.5
2018-Feb-05 07:30N 34°38' E 135°20'4 7.7
2018-Feb-05 07:01N 34°41' E 135°21'2 4.0
2018-Feb-05 06:30N 34°43' E 135°21'0 0.0
2018-Feb-05 05:29N 34°43' E 135°21'0 0.0
2018-Feb-05 04:59N 34°43' E 135°21'0 0.0
2018-Feb-05 04:30N 34°43' E 135°21'0 0.0
2018-Feb-05 04:00N 34°43' E 135°21'1 2.0
2018-Feb-05 03:30N 34°42' E 135°21'1 1.5
2018-Feb-05 02:58N 34°42' E 135°20'0 0.1
2018-Feb-05 02:26N 34°42' E 135°20'0 0.1
2018-Feb-05 01:59N 34°42' E 135°20'0 0.1
2018-Feb-05 01:29N 34°42' E 135°20'0 0.0
2018-Feb-05 00:59N 34°42' E 135°20'0 0.0
2018-Feb-05 00:28N 34°42' E 135°20'0 0.0
2018-Feb-04 23:58N 34°42' E 135°20'0 0.1
2018-Feb-04 23:29N 34°42' E 135°20'0 0.1
2018-Feb-04 22:58N 34°42' E 135°20'1 2.4
2018-Feb-04 22:30N 34°41' E 135°19'4 8.6
2018-Feb-04 22:00N 34°37' E 135°17'5 9.9
2018-Feb-04 21:30N 34°34' E 135°12'510.2
2018-Feb-04 21:00N 34°33' E 135°06'1111.1
2018-Feb-04 20:00N 34°35' E 134°53'611.5
2018-Feb-04 19:30N 34°32' E 134°47'510.5
2018-Feb-04 19:00N 34°30' E 134°41'510.2
2018-Feb-04 18:31N 34°28' E 134°35'510.2
2018-Feb-04 18:00N 34°26' E 134°29'510.2
2018-Feb-04 17:30N 34°24' E 134°24'16 0.5
2018-Feb-03 11:56N 34°27' E 134°04'510.9
2018-Feb-03 11:26N 34°25' E 134°11'410.0
2018-Feb-03 11:00N 34°24' E 134°16'5 9.7
2018-Feb-03 10:30N 34°25' E 134°21'5 9.6
2018-Feb-03 10:00N 34°27' E 134°27'5 9.7
2018-Feb-03 09:30N 34°29' E 134°32'5 9.5
2018-Feb-03 09:00N 34°30' E 134°37'5 9.3
2018-Feb-03 08:31N 34°32' E 134°43'5 9.0
2018-Feb-03 08:00N 34°34' E 134°48'11 7.5
2018-Feb-03 06:30N 34°38' E 135°01'3 6.2
2018-Feb-03 06:01N 34°36' E 135°04'5 9.1
2018-Feb-03 05:30N 34°36' E 135°09'510.3
2018-Feb-03 05:00N 34°36' E 135°16'8 8.1
2018-Feb-03 04:00N 34°35' E 135°26'0 0.1
2018-Feb-03 03:28N 34°35' E 135°26'0 0.0
2018-Feb-03 01:58N 34°35' E 135°26'0 0.0
2018-Feb-03 01:28N 34°35' E 135°26'0 0.1
2018-Feb-03 01:00N 34°35' E 135°26'2 4.5
2018-Feb-03 00:30N 34°36' E 135°23'2 4.2
2018-Feb-03 00:01N 34°36' E 135°21'3 6.5
2018-Feb-02 23:30N 34°39' E 135°21'4 7.7
2018-Feb-02 23:01N 34°43' E 135°21'0 0.4
2018-Feb-02 22:31N 34°43' E 135°21'0 0.0
2018-Feb-02 22:00N 34°43' E 135°21'0 0.0
2018-Feb-02 21:30N 34°43' E 135°21'0 0.0
2018-Feb-02 21:00N 34°43' E 135°21'0 0.0
2018-Feb-02 20:30N 34°43' E 135°21'0 0.0
2018-Feb-02 19:57N 34°43' E 135°21'0 0.0
2018-Feb-02 18:57N 34°43' E 135°21'0 0.0
2018-Feb-02 18:30N 34°43' E 135°21'0 0.0
2018-Feb-02 18:00N 34°43' E 135°21'0 0.0
2018-Feb-02 17:27N 34°43' E 135°21'0 0.1
2018-Feb-02 17:00N 34°43' E 135°21'0 0.1
2018-Feb-02 16:30N 34°43' E 135°21'0 0.0
2018-Feb-02 15:30N 34°43' E 135°21'0 0.0
2018-Feb-02 14:30N 34°43' E 135°21'0 0.0
2018-Feb-02 13:57N 34°43' E 135°21'0 0.0
2018-Feb-02 13:30N 34°43' E 135°21'0 0.4
2018-Feb-02 13:00N 34°43' E 135°21'1 2.9
2018-Feb-02 12:31N 34°42' E 135°20'4 7.3
2018-Feb-02 12:01N 34°38' E 135°19'4 8.8
2018-Feb-02 11:31N 34°36' E 135°15'5 9.2
2018-Feb-02 11:00N 34°35' E 135°09'5 9.9
2018-Feb-02 10:30N 34°36' E 135°03'4 8.7
2018-Feb-02 10:01N 34°37' E 134°58'510.7
2018-Feb-02 09:31N 34°34' E 134°52'510.0
2018-Feb-02 09:00N 34°32' E 134°47'510.2
2018-Feb-02 08:30N 34°30' E 134°41'510.3
2018-Feb-02 08:01N 34°28' E 134°35'510.2
2018-Feb-02 07:30N 34°26' E 134°29'510.3
2018-Feb-02 07:00N 34°25' E 134°24'  
2018-Jan-30 12:41N 34°24' E 133°48'13 9.1
2018-Jan-30 11:13N 34°27' E 134°03'710.2
2018-Jan-30 10:30N 34°25' E 134°12'10 9.8
2018-Jan-30 09:30N 34°26' E 134°24'5 9.8
2018-Jan-30 09:00N 34°28' E 134°29'5 9.4
2018-Jan-30 08:30N 34°29' E 134°35'5 9.2
2018-Jan-30 08:00N 34°31' E 134°40'5 9.0
2018-Jan-30 07:30N 34°33' E 134°45'4 8.7
2018-Jan-30 07:00N 34°34' E 134°50'4 7.8
2018-Jan-30 06:30N 34°36' E 134°54'4 7.4
2018-Jan-30 06:00N 34°37' E 134°58'3 6.2
2018-Jan-30 05:30N 34°37' E 135°02'3 6.7
2018-Jan-30 05:00N 34°36' E 135°06'4 8.7
2018-Jan-30 04:30N 34°37' E 135°11'4 8.8
2018-Jan-30 04:00N 34°38' E 135°16'5 9.0
2018-Jan-30 03:30N 34°40' E 135°21'3 6.4
2018-Jan-30 03:01N 34°43' E 135°21'0 0.2
2018-Jan-30 02:30N 34°43' E 135°21'0 0.0
2018-Jan-30 02:00N 34°43' E 135°21'0 0.0
2018-Jan-30 01:30N 34°43' E 135°21'0 0.0
2018-Jan-30 01:00N 34°43' E 135°21'0 0.0
2018-Jan-30 00:30N 34°43' E 135°21'1 1.9
2018-Jan-30 00:00N 34°42' E 135°21'4 7.4
2018-Jan-29 23:30N 34°38' E 135°21'3 5.9
2018-Jan-29 23:00N 34°36' E 135°23'2 4.3
2018-Jan-29 22:30N 34°35' E 135°26'0 0.0
2018-Jan-29 21:59N 34°35' E 135°26'0 0.0
2018-Jan-29 21:29N 34°35' E 135°26'0 0.0
2018-Jan-29 20:59N 34°35' E 135°26'0 0.0
2018-Jan-29 20:25N 34°35' E 135°26'0 0.0
2018-Jan-29 19:58N 34°35' E 135°26'0 0.0
2018-Jan-29 19:29N 34°35' E 135°26'0 0.0
2018-Jan-29 18:58N 34°35' E 135°26'0 0.0
2018-Jan-29 18:29N 34°35' E 135°26'0 0.0
2018-Jan-29 17:56N 34°35' E 135°26'0 0.0
2018-Jan-29 17:29N 34°35' E 135°26'0 0.0
2018-Jan-29 16:58N 34°35' E 135°26'0 0.0
2018-Jan-29 16:28N 34°35' E 135°26'0 0.0
2018-Jan-29 15:59N 34°35' E 135°26'0 0.0
2018-Jan-29 15:28N 34°35' E 135°26'0 0.0
2018-Jan-29 14:58N 34°35' E 135°26'0 0.0
2018-Jan-29 14:28N 34°35' E 135°26'0 0.0
2018-Jan-29 13:58N 34°35' E 135°26'0 0.0
2018-Jan-29 13:29N 34°35' E 135°26'0 0.0
2018-Jan-29 12:58N 34°35' E 135°26'0 0.0
2018-Jan-29 12:28N 34°35' E 135°26'0 0.0
2018-Jan-29 11:58N 34°35' E 135°26'0 0.0
2018-Jan-29 11:25N 34°35' E 135°26'0 0.5
2018-Jan-29 11:00N 34°35' E 135°25'3 6.2
2018-Jan-29 10:30N 34°36' E 135°22'5 9.6
2018-Jan-29 10:00N 34°36' E 135°16'5 9.6
2018-Jan-29 09:30N 34°35' E 135°10'5 9.8
2018-Jan-29 09:00N 34°35' E 135°04'4 8.2
2018-Jan-29 08:30N 34°37' E 135°00'5 9.3
2018-Jan-29 08:00N 34°35' E 134°55'5 9.5
2018-Jan-29 07:30N 34°33' E 134°50'5 9.4
2018-Jan-29 07:00N 34°31' E 134°44'5 9.7
2018-Jan-29 06:30N 34°29' E 134°39'5 9.7
2018-Jan-29 06:00N 34°28' E 134°34'5 9.7
2018-Jan-29 05:30N 34°26' E 134°28'5 9.9
2018-Jan-29 05:00N 34°24' E 134°22'15 0.4
2018-Jan-27 18:36N 34°27' E 134°04'311.1
2018-Jan-27 18:19N 34°26' E 134°08'410.9
2018-Jan-27 17:59N 34°25' E 134°12'510.1
2018-Jan-27 17:30N 34°25' E 134°18'5 9.9
2018-Jan-27 17:00N 34°26' E 134°24'5 9.8
2018-Jan-27 16:30N 34°28' E 134°29'5 9.7
2018-Jan-27 16:00N 34°30' E 134°35'5 9.5
2018-Jan-27 15:30N 34°32' E 134°40'5 9.3
2018-Jan-27 15:00N 34°33' E 134°46'4 8.4
2018-Jan-27 14:30N 34°35' E 134°50'4 7.6
2018-Jan-27 14:01N 34°36' E 134°55'4 7.2
2018-Jan-27 13:30N 34°37' E 134°59'3 5.8
2018-Jan-27 13:00N 34°37' E 135°02'4 7.0
2018-Jan-27 12:30N 34°36' E 135°06'5 9.6
2018-Jan-27 12:00N 34°36' E 135°12'5 9.5
2018-Jan-27 11:30N 34°39' E 135°17'5 9.1
2018-Jan-27 11:00N 34°42' E 135°21'1 1.8
2018-Jan-27 10:30N 34°43' E 135°21'0 0.0
2018-Jan-27 09:59N 34°43' E 135°21'0 0.0
2018-Jan-27 09:29N 34°43' E 135°21'0 0.0
2018-Jan-27 08:59N 34°43' E 135°21'0 0.0
2018-Jan-27 08:29N 34°43' E 135°21'0 0.0
2018-Jan-27 07:58N 34°43' E 135°21'0 0.1
2018-Jan-27 07:30N 34°43' E 135°21'1 2.0
2018-Jan-27 07:00N 34°42' E 135°21'3 6.9
2018-Jan-27 06:30N 34°39' E 135°18'5 9.4
2018-Jan-27 06:00N 34°35' E 135°16'5 9.6
2018-Jan-27 05:30N 34°31' E 135°13'5 9.6
2018-Jan-27 05:00N 34°27' E 135°09'5 9.3
2018-Jan-27 04:30N 34°24' E 135°05'  

Dump ship's entire track history